sensor_id;sensor_type;location;lat;lon;timestamp;temperature;humidity
6439;DHT22;3252;52.540;13.290;2023-02-01T00:21:55;5.10;99.90
6439;DHT22;3252;52.540;13.290;2023-02-01T00:27:49;5.10;99.90
6439;DHT22;3252;52.540;13.290;2023-02-01T00:33:20;5.10;99.90
6439;DHT22;3252;52.540;13.290;2023-02-01T01:00:38;4.90;99.90
6439;DHT22;3252;52.540;13.290;2023-02-01T01:03:17;4.80;99.90
6439;DHT22;3252;52.540;13.290;2023-02-01T01:23:07;4.70;99.90
6439;DHT22;3252;52.540;13.290;2023-02-01T01:29:42;4.70;99.90
6439;DHT22;3252;52.540;13.290;2023-02-01T01:33:13;4.70;99.90
6439;DHT22;3252;52.540;13.290;2023-02-01T01:46:43;4.70;99.90
6439;DHT22;3252;52.540;13.290;2023-02-01T01:51:57;4.80;99.90
6439;DHT22;3252;52.540;13.290;2023-02-01T02:01:03;4.80;99.90
6439;DHT22;3252;52.540;13.290;2023-02-01T02:04:57;4.80;99.90
6439;DHT22;3252;52.540;13.290;2023-02-01T02:07:52;4.90;99.90
6439;DHT22;3252;52.540;13.290;2023-02-01T02:13:10;4.90;99.90
6439;DHT22;3252;52.540;13.290;2023-02-01T02:43:58;5.00;99.90
6439;DHT22;3252;52.540;13.290;2023-02-01T02:46:25;5.00;99.90
6439;DHT22;3252;52.540;13.290;2023-02-01T02:49:04;5.00;99.90
6439;DHT22;3252;52.540;13.290;2023-02-01T02:55:11;5.00;99.90
6439;DHT22;3252;52.540;13.290;2023-02-01T02:58:50;5.00;99.90
6439;DHT22;3252;52.540;13.290;2023-02-01T03:43:17;5.00;99.90
6439;DHT22;3252;52.540;13.290;2023-02-01T03:54:07;5.00;99.90
6439;DHT22;3252;52.540;13.290;2023-02-01T07:21:54;5.30;99.90
6439;DHT22;3252;52.540;13.290;2023-02-01T07:24:24;5.30;99.90
6439;DHT22;3252;52.540;13.290;2023-02-01T07:26:54;5.30;99.90
6439;DHT22;3252;52.540;13.290;2023-02-01T07:31:46;5.50;99.90
6439;DHT22;3252;52.540;13.290;2023-02-01T07:34:18;5.50;99.90
6439;DHT22;3252;52.540;13.290;2023-02-01T07:36:24;5.50;99.90
6439;DHT22;3252;52.540;13.290;2023-02-01T07:43:40;5.60;99.90
6439;DHT22;3252;52.540;13.290;2023-02-01T07:45:53;5.40;99.90
6439;DHT22;3252;52.540;13.290;2023-02-01T07:48:46;5.40;99.90
6439;DHT22;3252;52.540;13.290;2023-02-01T07:51:54;5.40;99.90
6439;DHT22;3252;52.540;13.290;2023-02-01T08:07:35;4.90;99.90
6439;DHT22;3252;52.540;13.290;2023-02-01T08:10:35;4.80;99.90
6439;DHT22;3252;52.540;13.290;2023-02-01T08:12:47;4.80;99.90
6439;DHT22;3252;52.540;13.290;2023-02-01T08:15:10;4.80;99.90
6439;DHT22;3252;52.540;13.290;2023-02-01T08:18:01;4.70;99.90
6439;DHT22;3252;52.540;13.290;2023-02-01T08:21:04;4.70;99.90
6439;DHT22;3252;52.540;13.290;2023-02-01T08:23:49;4.70;99.90
6439;DHT22;3252;52.540;13.290;2023-02-01T08:28:52;4.80;99.90
6439;DHT22;3252;52.540;13.290;2023-02-01T08:30:55;4.70;99.90
6439;DHT22;3252;52.540;13.290;2023-02-01T08:32:57;4.70;99.90
6439;DHT22;3252;52.540;13.290;2023-02-01T08:34:59;4.70;99.90
6439;DHT22;3252;52.540;13.290;2023-02-01T08:37:01;4.70;99.90
6439;DHT22;3252;52.540;13.290;2023-02-01T08:39:05;4.80;99.90
6439;DHT22;3252;52.540;13.290;2023-02-01T08:41:11;4.80;99.90
6439;DHT22;3252;52.540;13.290;2023-02-01T08:43:14;4.80;99.90
6439;DHT22;3252;52.540;13.290;2023-02-01T08:45:16;4.80;99.90
6439;DHT22;3252;52.540;13.290;2023-02-01T08:47:19;4.80;99.90
6439;DHT22;3252;52.540;13.290;2023-02-01T08:49:21;4.80;99.90
6439;DHT22;3252;52.540;13.290;2023-02-01T08:51:23;4.80;99.90
6439;DHT22;3252;52.540;13.290;2023-02-01T08:53:26;4.80;99.90
6439;DHT22;3252;52.540;13.290;2023-02-01T08:55:29;4.90;99.90
6439;DHT22;3252;52.540;13.290;2023-02-01T08:57:31;4.90;99.90
6439;DHT22;3252;52.540;13.290;2023-02-01T08:59:34;4.80;99.90
6439;DHT22;3252;52.540;13.290;2023-02-01T09:01:36;4.90;99.90
6439;DHT22;3252;52.540;13.290;2023-02-01T09:03:38;4.80;99.90
6439;DHT22;3252;52.540;13.290;2023-02-01T09:05:40;4.90;99.90
6439;DHT22;3252;52.540;13.290;2023-02-01T09:07:43;4.90;99.90
6439;DHT22;3252;52.540;13.290;2023-02-01T09:09:45;4.90;99.90
6439;DHT22;3252;52.540;13.290;2023-02-01T09:11:49;4.90;99.90
6439;DHT22;3252;52.540;13.290;2023-02-01T09:13:51;4.90;99.90
6439;DHT22;3252;52.540;13.290;2023-02-01T09:15:53;4.90;99.90
6439;DHT22;3252;52.540;13.290;2023-02-01T09:18:00;4.90;99.90
6439;DHT22;3252;52.540;13.290;2023-02-01T09:20:03;4.90;99.90
6439;DHT22;3252;52.540;13.290;2023-02-01T09:22:05;4.90;99.90
6439;DHT22;3252;52.540;13.290;2023-02-01T09:24:10;4.90;99.90
6439;DHT22;3252;52.540;13.290;2023-02-01T09:26:12;5.00;99.90
6439;DHT22;3252;52.540;13.290;2023-02-01T09:28:16;5.00;99.90
6439;DHT22;3252;52.540;13.290;2023-02-01T09:30:19;5.00;99.90
6439;DHT22;3252;52.540;13.290;2023-02-01T09:32:24;5.00;99.90
6439;DHT22;3252;52.540;13.290;2023-02-01T09:34:26;5.00;99.90
6439;DHT22;3252;52.540;13.290;2023-02-01T09:36:31;5.00;99.90
6439;DHT22;3252;52.540;13.290;2023-02-01T09:38:36;5.10;99.90
6439;DHT22;3252;52.540;13.290;2023-02-01T09:40:42;5.10;99.90
6439;DHT22;3252;52.540;13.290;2023-02-01T09:42:58;5.00;99.90
6439;DHT22;3252;52.540;13.290;2023-02-01T09:45:14;5.00;99.90
6439;DHT22;3252;52.540;13.290;2023-02-01T09:47:22;5.10;99.90
6439;DHT22;3252;52.540;13.290;2023-02-01T09:49:29;5.10;99.90
6439;DHT22;3252;52.540;13.290;2023-02-01T09:51:35;5.10;99.90
6439;DHT22;3252;52.540;13.290;2023-02-01T09:53:42;5.10;99.90
6439;DHT22;3252;52.540;13.290;2023-02-01T09:55:47;5.10;99.90
6439;DHT22;3252;52.540;13.290;2023-02-01T09:57:53;5.10;99.90
6439;DHT22;3252;52.540;13.290;2023-02-01T10:00:02;5.10;99.90
6439;DHT22;3252;52.540;13.290;2023-02-01T10:02:18;5.10;99.90
6439;DHT22;3252;52.540;13.290;2023-02-01T10:04:21;5.10;99.90
6439;DHT22;3252;52.540;13.290;2023-02-01T10:06:38;5.00;99.90
6439;DHT22;3252;52.540;13.290;2023-02-01T10:09:13;5.00;99.90
6439;DHT22;3252;52.540;13.290;2023-02-01T10:11:27;5.00;99.90
6439;DHT22;3252;52.540;13.290;2023-02-01T10:13:55;5.00;99.90
6439;DHT22;3252;52.540;13.290;2023-02-01T10:16:16;5.10;99.90
6439;DHT22;3252;52.540;13.290;2023-02-01T10:18:35;5.10;99.90
6439;DHT22;3252;52.540;13.290;2023-02-01T10:20:50;5.10;99.90
6439;DHT22;3252;52.540;13.290;2023-02-01T10:23:01;5.10;99.90
6439;DHT22;3252;52.540;13.290;2023-02-01T10:25:11;5.10;99.90
6439;DHT22;3252;52.540;13.290;2023-02-01T10:27:18;5.10;99.90
6439;DHT22;3252;52.540;13.290;2023-02-01T10:29:25;5.00;99.90
6439;DHT22;3252;52.540;13.290;2023-02-01T10:31:30;5.10;99.90
6439;DHT22;3252;52.540;13.290;2023-02-01T10:33:38;5.20;99.90
6439;DHT22;3252;52.540;13.290;2023-02-01T10:35:44;5.30;99.90
6439;DHT22;3252;52.540;13.290;2023-02-01T10:37:46;5.30;99.90
6439;DHT22;3252;52.540;13.290;2023-02-01T10:39:49;5.30;99.90
6439;DHT22;3252;52.540;13.290;2023-02-01T10:41:51;5.30;99.90
6439;DHT22;3252;52.540;13.290;2023-02-01T10:43:55;5.30;99.90
6439;DHT22;3252;52.540;13.290;2023-02-01T10:45:59;5.30;99.90
6439;DHT22;3252;52.540;13.290;2023-02-01T10:48:02;5.30;99.90
6439;DHT22;3252;52.540;13.290;2023-02-01T10:50:15;5.20;99.90
6439;DHT22;3252;52.540;13.290;2023-02-01T10:52:23;5.10;99.90
6439;DHT22;3252;52.540;13.290;2023-02-01T10:54:33;5.20;99.90
6439;DHT22;3252;52.540;13.290;2023-02-01T10:56:38;5.10;99.90
6439;DHT22;3252;52.540;13.290;2023-02-01T10:58:44;5.10;99.90
6439;DHT22;3252;52.540;13.290;2023-02-01T11:00:51;5.10;99.90
6439;DHT22;3252;52.540;13.290;2023-02-01T11:02:55;5.20;99.90
6439;DHT22;3252;52.540;13.290;2023-02-01T11:05:03;5.30;99.90
6439;DHT22;3252;52.540;13.290;2023-02-01T11:07:19;5.50;99.90
6439;DHT22;3252;52.540;13.290;2023-02-01T11:09:27;5.40;99.90
6439;DHT22;3252;52.540;13.290;2023-02-01T11:11:29;5.40;99.90
6439;DHT22;3252;52.540;13.290;2023-02-01T11:13:36;5.40;99.90
6439;DHT22;3252;52.540;13.290;2023-02-01T11:15:43;5.40;99.90
6439;DHT22;3252;52.540;13.290;2023-02-01T11:17:48;5.40;99.90
6439;DHT22;3252;52.540;13.290;2023-02-01T11:19:57;5.40;99.90
6439;DHT22;3252;52.540;13.290;2023-02-01T11:22:00;5.50;99.90
6439;DHT22;3252;52.540;13.290;2023-02-01T11:24:05;5.60;99.90
6439;DHT22;3252;52.540;13.290;2023-02-01T11:26:14;5.70;99.90
6439;DHT22;3252;52.540;13.290;2023-02-01T11:28:17;5.80;99.90
6439;DHT22;3252;52.540;13.290;2023-02-01T11:30:33;5.90;99.90
6439;DHT22;3252;52.540;13.290;2023-02-01T11:32:38;6.10;99.90
6439;DHT22;3252;52.540;13.290;2023-02-01T11:34:51;6.30;99.90
6439;DHT22;3252;52.540;13.290;2023-02-01T11:36:58;6.20;99.90
6439;DHT22;3252;52.540;13.290;2023-02-01T11:39:23;6.20;99.90
6439;DHT22;3252;52.540;13.290;2023-02-01T11:41:27;6.20;99.90
6439;DHT22;3252;52.540;13.290;2023-02-01T11:43:29;6.20;99.90
6439;DHT22;3252;52.540;13.290;2023-02-01T11:45:32;6.30;99.90
6439;DHT22;3252;52.540;13.290;2023-02-01T11:47:39;6.30;99.90
6439;DHT22;3252;52.540;13.290;2023-02-01T11:49:42;6.40;99.90
6439;DHT22;3252;52.540;13.290;2023-02-01T11:52:03;6.60;99.90
6439;DHT22;3252;52.540;13.290;2023-02-01T11:54:18;6.70;99.90
6439;DHT22;3252;52.540;13.290;2023-02-01T11:56:29;6.90;99.90
6439;DHT22;3252;52.540;13.290;2023-02-01T12:01:17;7.10;99.90
6439;DHT22;3252;52.540;13.290;2023-02-01T12:03:59;7.20;99.90
6439;DHT22;3252;52.540;13.290;2023-02-01T12:06:09;7.30;99.90
6439;DHT22;3252;52.540;13.290;2023-02-01T12:08:29;7.40;99.90
6439;DHT22;3252;52.540;13.290;2023-02-01T12:10:43;7.30;99.90
6439;DHT22;3252;52.540;13.290;2023-02-01T12:12:58;7.20;99.90
6439;DHT22;3252;52.540;13.290;2023-02-01T12:17:52;7.10;99.90
6439;DHT22;3252;52.540;13.290;2023-02-01T12:20:15;7.10;99.90
6439;DHT22;3252;52.540;13.290;2023-02-01T12:22:34;7.10;99.90
6439;DHT22;3252;52.540;13.290;2023-02-01T12:27:36;7.00;99.90
6439;DHT22;3252;52.540;13.290;2023-02-01T12:29:56;6.90;99.90
6439;DHT22;3252;52.540;13.290;2023-02-01T12:32:11;6.90;99.90
6439;DHT22;3252;52.540;13.290;2023-02-01T12:34:35;6.80;99.90
6439;DHT22;3252;52.540;13.290;2023-02-01T12:36:46;6.80;99.90
6439;DHT22;3252;52.540;13.290;2023-02-01T12:38:53;6.80;99.90
6439;DHT22;3252;52.540;13.290;2023-02-01T12:41:06;6.80;99.90
6439;DHT22;3252;52.540;13.290;2023-02-01T12:43:13;6.70;99.90
6439;DHT22;3252;52.540;13.290;2023-02-01T12:45:32;6.70;99.90
6439;DHT22;3252;52.540;13.290;2023-02-01T12:47:38;6.80;99.90
6439;DHT22;3252;52.540;13.290;2023-02-01T12:49:47;6.80;99.90
6439;DHT22;3252;52.540;13.290;2023-02-01T12:51:52;6.80;99.90
6439;DHT22;3252;52.540;13.290;2023-02-01T12:54:02;6.80;99.90
6439;DHT22;3252;52.540;13.290;2023-02-01T12:56:12;6.90;99.90
6439;DHT22;3252;52.540;13.290;2023-02-01T12:58:20;6.90;99.90
6439;DHT22;3252;52.540;13.290;2023-02-01T13:00:32;6.90;99.90
6439;DHT22;3252;52.540;13.290;2023-02-01T13:02:42;6.90;99.90
6439;DHT22;3252;52.540;13.290;2023-02-01T13:04:55;6.90;99.90
6439;DHT22;3252;52.540;13.290;2023-02-01T13:07:06;7.00;99.90
6439;DHT22;3252;52.540;13.290;2023-02-01T13:09:17;7.00;99.90
6439;DHT22;3252;52.540;13.290;2023-02-01T13:11:27;7.10;99.90
6439;DHT22;3252;52.540;13.290;2023-02-01T13:13:36;7.10;99.90
6439;DHT22;3252;52.540;13.290;2023-02-01T13:15:45;7.10;99.90
6439;DHT22;3252;52.540;13.290;2023-02-01T13:17:49;7.10;99.90
6439;DHT22;3252;52.540;13.290;2023-02-01T13:19:57;7.10;99.90
6439;DHT22;3252;52.540;13.290;2023-02-01T13:22:03;7.00;99.90
6439;DHT22;3252;52.540;13.290;2023-02-01T13:24:35;7.00;99.90
6439;DHT22;3252;52.540;13.290;2023-02-01T13:26:38;7.00;99.90
6439;DHT22;3252;52.540;13.290;2023-02-01T13:28:44;7.00;99.90
6439;DHT22;3252;52.540;13.290;2023-02-01T13:31:05;7.00;99.90
6439;DHT22;3252;52.540;13.290;2023-02-01T13:36:06;7.00;99.90
6439;DHT22;3252;52.540;13.290;2023-02-01T13:38:30;7.00;99.90
6439;DHT22;3252;52.540;13.290;2023-02-01T13:40:39;6.90;99.90
6439;DHT22;3252;52.540;13.290;2023-02-01T13:42:47;6.90;99.90
6439;DHT22;3252;52.540;13.290;2023-02-01T13:44:51;6.90;99.90
6439;DHT22;3252;52.540;13.290;2023-02-01T13:46:58;7.00;99.90
6439;DHT22;3252;52.540;13.290;2023-02-01T13:49:03;7.00;99.90
6439;DHT22;3252;52.540;13.290;2023-02-01T13:51:07;7.00;99.90
6439;DHT22;3252;52.540;13.290;2023-02-01T13:53:16;7.00;99.90
6439;DHT22;3252;52.540;13.290;2023-02-01T13:55:29;7.00;99.90
6439;DHT22;3252;52.540;13.290;2023-02-01T13:57:36;7.00;99.90
6439;DHT22;3252;52.540;13.290;2023-02-01T14:00:22;7.00;99.90
6439;DHT22;3252;52.540;13.290;2023-02-01T14:02:49;7.00;99.90
6439;DHT22;3252;52.540;13.290;2023-02-01T14:04:52;7.00;99.90
6439;DHT22;3252;52.540;13.290;2023-02-01T14:06:58;7.00;99.90
6439;DHT22;3252;52.540;13.290;2023-02-01T14:09:15;6.90;99.90
6439;DHT22;3252;52.540;13.290;2023-02-01T14:13:38;6.60;99.90
6439;DHT22;3252;52.540;13.290;2023-02-01T14:16:14;6.40;99.90
6439;DHT22;3252;52.540;13.290;2023-02-01T14:18:57;6.40;99.90
6439;DHT22;3252;52.540;13.290;2023-02-01T14:21:18;6.40;99.90
6439;DHT22;3252;52.540;13.290;2023-02-01T14:23:39;6.40;99.90
6439;DHT22;3252;52.540;13.290;2023-02-01T14:26:19;6.40;99.90
6439;DHT22;3252;52.540;13.290;2023-02-01T14:28:25;6.40;99.90
6439;DHT22;3252;52.540;13.290;2023-02-01T14:33:12;6.30;99.90
6439;DHT22;3252;52.540;13.290;2023-02-01T14:38:00;6.40;99.90
6439;DHT22;3252;52.540;13.290;2023-02-01T14:40:15;6.30;99.90
6439;DHT22;3252;52.540;13.290;2023-02-01T14:42:24;6.30;99.90
6439;DHT22;3252;52.540;13.290;2023-02-01T14:44:31;6.30;99.90
6439;DHT22;3252;52.540;13.290;2023-02-01T14:47:04;6.30;99.90
6439;DHT22;3252;52.540;13.290;2023-02-01T14:49:07;6.30;99.90
6439;DHT22;3252;52.540;13.290;2023-02-01T14:51:13;6.30;99.90
6439;DHT22;3252;52.540;13.290;2023-02-01T14:53:20;6.20;99.90
6439;DHT22;3252;52.540;13.290;2023-02-01T14:55:29;6.30;99.90
6439;DHT22;3252;52.540;13.290;2023-02-01T14:57:34;6.30;99.90
6439;DHT22;3252;52.540;13.290;2023-02-01T14:59:38;6.20;99.90
6439;DHT22;3252;52.540;13.290;2023-02-01T15:01:49;6.30;99.90
6439;DHT22;3252;52.540;13.290;2023-02-01T15:03:58;6.30;99.90
6439;DHT22;3252;52.540;13.290;2023-02-01T15:06:02;6.30;99.90
6439;DHT22;3252;52.540;13.290;2023-02-01T15:08:13;6.30;99.90
6439;DHT22;3252;52.540;13.290;2023-02-01T15:10:23;6.20;99.90
6439;DHT22;3252;52.540;13.290;2023-02-01T15:12:26;6.10;99.90
6439;DHT22;3252;52.540;13.290;2023-02-01T15:14:35;6.00;99.90
6439;DHT22;3252;52.540;13.290;2023-02-01T15:16:42;5.90;99.90
6439;DHT22;3252;52.540;13.290;2023-02-01T15:18:50;5.80;99.90
6439;DHT22;3252;52.540;13.290;2023-02-01T15:20:56;5.80;99.90
6439;DHT22;3252;52.540;13.290;2023-02-01T15:23:00;5.70;99.90
6439;DHT22;3252;52.540;13.290;2023-02-01T15:25:03;5.60;99.90
6439;DHT22;3252;52.540;13.290;2023-02-01T15:27:09;5.50;99.90
6439;DHT22;3252;52.540;13.290;2023-02-01T15:29:13;5.50;99.90
6439;DHT22;3252;52.540;13.290;2023-02-01T15:31:31;5.30;99.90
6439;DHT22;3252;52.540;13.290;2023-02-01T15:33:34;5.20;99.90
6439;DHT22;3252;52.540;13.290;2023-02-01T15:35:39;5.20;99.90
6439;DHT22;3252;52.540;13.290;2023-02-01T15:37:43;5.00;99.90
6439;DHT22;3252;52.540;13.290;2023-02-01T15:40:17;5.00;99.90
6439;DHT22;3252;52.540;13.290;2023-02-01T15:42:21;5.00;99.90
6439;DHT22;3252;52.540;13.290;2023-02-01T15:44:34;4.90;99.90
6439;DHT22;3252;52.540;13.290;2023-02-01T15:46:42;4.90;99.90
6439;DHT22;3252;52.540;13.290;2023-02-01T15:48:50;4.90;99.90
6439;DHT22;3252;52.540;13.290;2023-02-01T15:50:53;4.80;99.90
6439;DHT22;3252;52.540;13.290;2023-02-01T15:52:56;4.80;99.90
6439;DHT22;3252;52.540;13.290;2023-02-01T15:55:00;4.70;99.90
6439;DHT22;3252;52.540;13.290;2023-02-01T15:57:04;4.60;99.90
6439;DHT22;3252;52.540;13.290;2023-02-01T15:59:14;4.60;99.90
6439;DHT22;3252;52.540;13.290;2023-02-01T16:01:17;4.50;99.90
6439;DHT22;3252;52.540;13.290;2023-02-01T16:03:32;4.50;99.90
6439;DHT22;3252;52.540;13.290;2023-02-01T16:05:37;4.40;99.90
6439;DHT22;3252;52.540;13.290;2023-02-01T16:07:40;4.40;99.90
6439;DHT22;3252;52.540;13.290;2023-02-01T16:09:58;4.20;99.90
6439;DHT22;3252;52.540;13.290;2023-02-01T16:12:23;4.10;99.90
6439;DHT22;3252;52.540;13.290;2023-02-01T16:14:27;4.10;99.90
6439;DHT22;3252;52.540;13.290;2023-02-01T16:16:29;4.00;99.90
6439;DHT22;3252;52.540;13.290;2023-02-01T16:18:32;3.90;99.90
6439;DHT22;3252;52.540;13.290;2023-02-01T16:27:45;3.70;99.90
6439;DHT22;3252;52.540;13.290;2023-02-01T16:29:50;3.70;99.90
6439;DHT22;3252;52.540;13.290;2023-02-01T16:31:52;3.70;99.90
6439;DHT22;3252;52.540;13.290;2023-02-01T16:33:55;3.70;99.90
6439;DHT22;3252;52.540;13.290;2023-02-01T16:35:57;3.70;99.90
6439;DHT22;3252;52.540;13.290;2023-02-01T16:38:04;3.70;99.90
6439;DHT22;3252;52.540;13.290;2023-02-01T16:40:13;3.70;99.90
6439;DHT22;3252;52.540;13.290;2023-02-01T16:44:47;3.70;99.90
6439;DHT22;3252;52.540;13.290;2023-02-01T16:46:59;3.70;99.90
6439;DHT22;3252;52.540;13.290;2023-02-01T16:49:02;3.70;99.90
6439;DHT22;3252;52.540;13.290;2023-02-01T16:51:08;3.70;99.90
6439;DHT22;3252;52.540;13.290;2023-02-01T16:53:12;3.70;99.90
6439;DHT22;3252;52.540;13.290;2023-02-01T16:55:17;3.70;99.90
6439;DHT22;3252;52.540;13.290;2023-02-01T16:57:20;3.70;99.90
6439;DHT22;3252;52.540;13.290;2023-02-01T16:59:24;3.80;99.90
6439;DHT22;3252;52.540;13.290;2023-02-01T17:01:26;3.80;99.90
6439;DHT22;3252;52.540;13.290;2023-02-01T17:03:30;3.80;99.90
6439;DHT22;3252;52.540;13.290;2023-02-01T17:05:34;3.80;99.90
6439;DHT22;3252;52.540;13.290;2023-02-01T17:07:38;3.80;99.90
6439;DHT22;3252;52.540;13.290;2023-02-01T17:09:42;3.80;99.90
6439;DHT22;3252;52.540;13.290;2023-02-01T17:11:45;3.80;99.90
6439;DHT22;3252;52.540;13.290;2023-02-01T17:13:47;3.80;99.90
6439;DHT22;3252;52.540;13.290;2023-02-01T17:15:52;3.90;99.90
6439;DHT22;3252;52.540;13.290;2023-02-01T17:18:02;3.90;99.90
6439;DHT22;3252;52.540;13.290;2023-02-01T17:20:10;3.90;99.90
6439;DHT22;3252;52.540;13.290;2023-02-01T17:22:20;3.90;99.90
6439;DHT22;3252;52.540;13.290;2023-02-01T17:24:26;4.00;99.90
6439;DHT22;3252;52.540;13.290;2023-02-01T17:26:29;4.00;99.90
6439;DHT22;3252;52.540;13.290;2023-02-01T17:33:25;4.10;99.90
6439;DHT22;3252;52.540;13.290;2023-02-01T17:35:30;4.10;99.90
6439;DHT22;3252;52.540;13.290;2023-02-01T17:37:33;4.20;99.90
6439;DHT22;3252;52.540;13.290;2023-02-01T17:39:37;4.20;99.90
6439;DHT22;3252;52.540;13.290;2023-02-01T18:16:03;4.50;99.90
6439;DHT22;3252;52.540;13.290;2023-02-01T18:45:37;4.70;99.90
6439;DHT22;3252;52.540;13.290;2023-02-01T19:11:55;4.70;99.90
6439;DHT22;3252;52.540;13.290;2023-02-01T19:13:57;4.90;99.90
6439;DHT22;3252;52.540;13.290;2023-02-01T19:16:05;4.80;99.90
6439;DHT22;3252;52.540;13.290;2023-02-01T19:18:08;4.80;99.90
6439;DHT22;3252;52.540;13.290;2023-02-01T19:20:12;4.70;99.90
6439;DHT22;3252;52.540;13.290;2023-02-01T19:22:14;4.70;99.90
6439;DHT22;3252;52.540;13.290;2023-02-01T19:24:17;4.70;99.90
6439;DHT22;3252;52.540;13.290;2023-02-01T19:26:19;4.70;99.90
6439;DHT22;3252;52.540;13.290;2023-02-01T19:28:25;4.70;99.90
6439;DHT22;3252;52.540;13.290;2023-02-01T19:30:28;4.70;99.90
6439;DHT22;3252;52.540;13.290;2023-02-01T19:32:30;4.70;99.90
6439;DHT22;3252;52.540;13.290;2023-02-01T19:34:32;4.70;99.90
6439;DHT22;3252;52.540;13.290;2023-02-01T19:36:34;4.70;99.90
6439;DHT22;3252;52.540;13.290;2023-02-01T19:38:39;4.70;99.90
6439;DHT22;3252;52.540;13.290;2023-02-01T19:40:41;4.70;99.90
6439;DHT22;3252;52.540;13.290;2023-02-01T19:42:44;4.70;99.90
6439;DHT22;3252;52.540;13.290;2023-02-01T19:44:48;4.70;99.90
6439;DHT22;3252;52.540;13.290;2023-02-01T19:46:50;4.70;99.90
6439;DHT22;3252;52.540;13.290;2023-02-01T19:48:52;4.70;99.90
6439;DHT22;3252;52.540;13.290;2023-02-01T19:50:56;4.70;99.90
6439;DHT22;3252;52.540;13.290;2023-02-01T19:52:58;4.70;99.90
6439;DHT22;3252;52.540;13.290;2023-02-01T19:55:00;4.70;99.90
6439;DHT22;3252;52.540;13.290;2023-02-01T19:57:03;4.70;99.90
6439;DHT22;3252;52.540;13.290;2023-02-01T19:59:05;4.70;99.90
6439;DHT22;3252;52.540;13.290;2023-02-01T20:01:09;4.70;99.90
6439;DHT22;3252;52.540;13.290;2023-02-01T20:03:12;4.70;99.90
6439;DHT22;3252;52.540;13.290;2023-02-01T20:05:14;4.70;99.90
6439;DHT22;3252;52.540;13.290;2023-02-01T20:07:17;4.80;99.90
6439;DHT22;3252;52.540;13.290;2023-02-01T20:09:21;4.80;99.90
6439;DHT22;3252;52.540;13.290;2023-02-01T20:11:24;4.80;99.90
6439;DHT22;3252;52.540;13.290;2023-02-01T20:13:27;4.80;99.90
6439;DHT22;3252;52.540;13.290;2023-02-01T20:15:31;4.80;99.90
6439;DHT22;3252;52.540;13.290;2023-02-01T20:17:34;4.70;99.90
6439;DHT22;3252;52.540;13.290;2023-02-01T20:19:37;4.70;99.90
6439;DHT22;3252;52.540;13.290;2023-02-01T20:21:40;4.70;99.90
6439;DHT22;3252;52.540;13.290;2023-02-01T20:23:43;4.70;99.90
6439;DHT22;3252;52.540;13.290;2023-02-01T20:25:47;4.70;99.90
6439;DHT22;3252;52.540;13.290;2023-02-01T20:27:49;4.70;99.90
6439;DHT22;3252;52.540;13.290;2023-02-01T20:29:51;4.60;99.90
6439;DHT22;3252;52.540;13.290;2023-02-01T20:31:53;4.60;99.90
6439;DHT22;3252;52.540;13.290;2023-02-01T20:33:58;4.70;99.90
6439;DHT22;3252;52.540;13.290;2023-02-01T20:36:01;4.60;99.90
6439;DHT22;3252;52.540;13.290;2023-02-01T20:38:03;4.60;99.90
6439;DHT22;3252;52.540;13.290;2023-02-01T20:40:07;4.60;99.90
6439;DHT22;3252;52.540;13.290;2023-02-01T20:42:09;4.60;99.90
6439;DHT22;3252;52.540;13.290;2023-02-01T20:44:13;4.60;99.90
6439;DHT22;3252;52.540;13.290;2023-02-01T20:46:15;4.60;99.90
6439;DHT22;3252;52.540;13.290;2023-02-01T20:48:17;4.60;99.90
6439;DHT22;3252;52.540;13.290;2023-02-01T20:50:21;4.60;99.90
6439;DHT22;3252;52.540;13.290;2023-02-01T20:52:24;4.60;99.90
6439;DHT22;3252;52.540;13.290;2023-02-01T20:54:27;4.50;99.90
6439;DHT22;3252;52.540;13.290;2023-02-01T20:56:29;4.50;99.90
6439;DHT22;3252;52.540;13.290;2023-02-01T20:58:31;4.50;99.90
6439;DHT22;3252;52.540;13.290;2023-02-01T21:00:33;4.50;99.90
6439;DHT22;3252;52.540;13.290;2023-02-01T21:02:36;4.50;99.90
6439;DHT22;3252;52.540;13.290;2023-02-01T21:04:38;4.40;99.90
6439;DHT22;3252;52.540;13.290;2023-02-01T21:06:41;4.40;99.90
6439;DHT22;3252;52.540;13.290;2023-02-01T21:08:43;4.40;99.90
6439;DHT22;3252;52.540;13.290;2023-02-01T21:10:54;4.40;99.90
6439;DHT22;3252;52.540;13.290;2023-02-01T21:12:57;4.40;99.90
6439;DHT22;3252;52.540;13.290;2023-02-01T21:14:59;4.40;99.90
6439;DHT22;3252;52.540;13.290;2023-02-01T21:17:01;4.30;99.90
6439;DHT22;3252;52.540;13.290;2023-02-01T21:19:03;4.30;99.90
6439;DHT22;3252;52.540;13.290;2023-02-01T21:21:06;4.30;99.90
6439;DHT22;3252;52.540;13.290;2023-02-01T21:23:11;4.30;99.90
6439;DHT22;3252;52.540;13.290;2023-02-01T21:25:13;4.30;99.90
6439;DHT22;3252;52.540;13.290;2023-02-01T21:27:15;4.20;99.90
6439;DHT22;3252;52.540;13.290;2023-02-01T21:29:18;4.20;99.90
6439;DHT22;3252;52.540;13.290;2023-02-01T21:31:21;4.20;99.90
6439;DHT22;3252;52.540;13.290;2023-02-01T21:33:25;4.10;99.90
6439;DHT22;3252;52.540;13.290;2023-02-01T21:35:27;4.10;99.90
6439;DHT22;3252;52.540;13.290;2023-02-01T21:37:30;4.10;99.90
6439;DHT22;3252;52.540;13.290;2023-02-01T21:39:33;4.10;99.90
6439;DHT22;3252;52.540;13.290;2023-02-01T21:41:36;4.10;99.90
6439;DHT22;3252;52.540;13.290;2023-02-01T21:43:56;4.10;99.90
6439;DHT22;3252;52.540;13.290;2023-02-01T21:45:58;4.10;99.90
6439;DHT22;3252;52.540;13.290;2023-02-01T21:48:00;4.10;99.90
6439;DHT22;3252;52.540;13.290;2023-02-01T21:50:04;4.10;99.90
6439;DHT22;3252;52.540;13.290;2023-02-01T21:52:07;4.10;99.90
6439;DHT22;3252;52.540;13.290;2023-02-01T21:54:10;4.10;99.90
6439;DHT22;3252;52.540;13.290;2023-02-01T21:56:14;4.10;99.90
6439;DHT22;3252;52.540;13.290;2023-02-01T21:58:16;4.10;99.90
6439;DHT22;3252;52.540;13.290;2023-02-01T22:00:18;4.10;99.90
6439;DHT22;3252;52.540;13.290;2023-02-01T22:02:21;4.10;99.90
6439;DHT22;3252;52.540;13.290;2023-02-01T22:04:23;4.10;99.90
6439;DHT22;3252;52.540;13.290;2023-02-01T22:06:26;4.10;99.90
6439;DHT22;3252;52.540;13.290;2023-02-01T22:08:29;4.10;99.90
6439;DHT22;3252;52.540;13.290;2023-02-01T22:10:32;4.10;99.90
6439;DHT22;3252;52.540;13.290;2023-02-01T22:12:35;4.20;99.90
6439;DHT22;3252;52.540;13.290;2023-02-01T22:14:37;4.20;99.90
6439;DHT22;3252;52.540;13.290;2023-02-01T22:16:40;4.20;99.90
6439;DHT22;3252;52.540;13.290;2023-02-01T22:18:44;4.20;99.90
6439;DHT22;3252;52.540;13.290;2023-02-01T22:20:46;4.20;99.90
6439;DHT22;3252;52.540;13.290;2023-02-01T22:22:48;4.30;99.90
6439;DHT22;3252;52.540;13.290;2023-02-01T22:24:50;4.30;99.90
6439;DHT22;3252;52.540;13.290;2023-02-01T22:26:54;4.30;99.90
6439;DHT22;3252;52.540;13.290;2023-02-01T22:28:57;4.30;99.90
6439;DHT22;3252;52.540;13.290;2023-02-01T22:31:00;4.30;99.90
6439;DHT22;3252;52.540;13.290;2023-02-01T22:33:03;4.30;99.90
6439;DHT22;3252;52.540;13.290;2023-02-01T22:35:06;4.30;99.90
6439;DHT22;3252;52.540;13.290;2023-02-01T22:37:08;4.40;99.90
6439;DHT22;3252;52.540;13.290;2023-02-01T22:39:12;4.30;99.90
6439;DHT22;3252;52.540;13.290;2023-02-01T22:41:14;4.40;99.90
6439;DHT22;3252;52.540;13.290;2023-02-01T22:43:17;4.40;99.90
6439;DHT22;3252;52.540;13.290;2023-02-01T22:45:20;4.40;99.90
6439;DHT22;3252;52.540;13.290;2023-02-01T22:47:22;4.40;99.90
6439;DHT22;3252;52.540;13.290;2023-02-01T22:49:24;4.40;99.90
6439;DHT22;3252;52.540;13.290;2023-02-01T22:51:28;4.40;99.90
6439;DHT22;3252;52.540;13.290;2023-02-01T22:53:32;4.40;99.90
6439;DHT22;3252;52.540;13.290;2023-02-01T22:55:37;4.40;99.90